sensor_id;sensor_type;location;lat;lon;timestamp;P1;durP1;ratioP1;P2;durP2;ratioP2
27869;SDS011;15225;50.730;4.244;2023-10-19T00:01:14;3.22;;;1.05;;
27869;SDS011;15225;50.730;4.244;2023-10-19T00:03:41;2.63;;;1.30;;
27869;SDS011;15225;50.730;4.244;2023-10-19T00:06:07;7.28;;;2.03;;
27869;SDS011;15225;50.730;4.244;2023-10-19T00:08:33;6.40;;;2.80;;
27869;SDS011;15225;50.730;4.244;2023-10-19T00:11:06;10.40;;;3.90;;
27869;SDS011;15225;50.730;4.244;2023-10-19T00:13:46;11.38;;;5.72;;
27869;SDS011;15225;50.730;4.244;2023-10-19T00:16:15;13.13;;;6.50;;
27869;SDS011;15225;50.730;4.244;2023-10-19T00:18:47;14.73;;;6.65;;
27869;SDS011;15225;50.730;4.244;2023-10-19T00:21:13;14.27;;;7.22;;
27869;SDS011;15225;50.730;4.244;2023-10-19T00:23:50;14.10;;;5.63;;
27869;SDS011;15225;50.730;4.244;2023-10-19T00:26:22;10.38;;;5.05;;
27869;SDS011;15225;50.730;4.244;2023-10-19T00:28:52;12.13;;;4.82;;
27869;SDS011;15225;50.730;4.244;2023-10-19T00:31:20;10.73;;;4.65;;
27869;SDS011;15225;50.730;4.244;2023-10-19T00:33:47;8.45;;;4.22;;
27869;SDS011;15225;50.730;4.244;2023-10-19T00:36:16;5.43;;;4.22;;
27869;SDS011;15225;50.730;4.244;2023-10-19T00:38:45;6.32;;;4.05;;
27869;SDS011;15225;50.730;4.244;2023-10-19T00:41:16;9.77;;;4.30;;
27869;SDS011;15225;50.730;4.244;2023-10-19T00:43:49;10.00;;;4.13;;
27869;SDS011;15225;50.730;4.244;2023-10-19T00:46:17;10.93;;;4.18;;
27869;SDS011;15225;50.730;4.244;2023-10-19T00:48:54;7.75;;;4.40;;
27869;SDS011;15225;50.730;4.244;2023-10-19T00:51:26;9.40;;;4.70;;
27869;SDS011;15225;50.730;4.244;2023-10-19T00:54:00;11.63;;;5.03;;
27869;SDS011;15225;50.730;4.244;2023-10-19T00:56:34;8.07;;;4.57;;
27869;SDS011;15225;50.730;4.244;2023-10-19T00:59:01;9.10;;;4.03;;
27869;SDS011;15225;50.730;4.244;2023-10-19T01:01:46;10.68;;;3.28;;
27869;SDS011;15225;50.730;4.244;2023-10-19T01:04:15;8.95;;;3.60;;
27869;SDS011;15225;50.730;4.244;2023-10-19T01:06:45;14.05;;;3.40;;
27869;SDS011;15225;50.730;4.244;2023-10-19T01:09:26;5.03;;;2.40;;
27869;SDS011;15225;50.730;4.244;2023-10-19T01:12:01;8.27;;;2.13;;
27869;SDS011;15225;50.730;4.244;2023-10-19T01:17:46;8.57;;;1.67;;
27869;SDS011;15225;50.730;4.244;2023-10-19T01:20:23;7.57;;;1.73;;
27869;SDS011;15225;50.730;4.244;2023-10-19T01:23:07;12.07;;;2.50;;
27869;SDS011;15225;50.730;4.244;2023-10-19T01:28:12;6.10;;;1.48;;
27869;SDS011;15225;50.730;4.244;2023-10-19T01:30:42;7.40;;;1.83;;
27869;SDS011;15225;50.730;4.244;2023-10-19T01:33:09;7.88;;;1.73;;
27869;SDS011;15225;50.730;4.244;2023-10-19T01:35:40;5.75;;;1.75;;
27869;SDS011;15225;50.730;4.244;2023-10-19T01:38:25;8.13;;;1.58;;
27869;SDS011;15225;50.730;4.244;2023-10-19T01:43:24;6.43;;;1.42;;
27869;SDS011;15225;50.730;4.244;2023-10-19T01:45:53;12.65;;;1.50;;
27869;SDS011;15225;50.730;4.244;2023-10-19T01:48:20;8.48;;;1.55;;
27869;SDS011;15225;50.730;4.244;2023-10-19T01:50:48;8.40;;;1.55;;
27869;SDS011;15225;50.730;4.244;2023-10-19T01:53:16;8.38;;;1.92;;
27869;SDS011;15225;50.730;4.244;2023-10-19T01:55:44;7.43;;;1.75;;
27869;SDS011;15225;50.730;4.244;2023-10-19T01:58:12;6.93;;;1.63;;
27869;SDS011;15225;50.730;4.244;2023-10-19T02:00:39;15.02;;;2.13;;
27869;SDS011;15225;50.730;4.244;2023-10-19T02:03:07;6.03;;;1.88;;
27869;SDS011;15225;50.730;4.244;2023-10-19T02:05:33;15.40;;;2.40;;
27869;SDS011;15225;50.730;4.244;2023-10-19T02:08:07;7.57;;;1.98;;
27869;SDS011;15225;50.730;4.244;2023-10-19T02:10:36;7.53;;;2.22;;
27869;SDS011;15225;50.730;4.244;2023-10-19T02:13:07;7.68;;;2.30;;
27869;SDS011;15225;50.730;4.244;2023-10-19T02:15:33;9.82;;;2.13;;
27869;SDS011;15225;50.730;4.244;2023-10-19T02:18:02;6.22;;;1.98;;
27869;SDS011;15225;50.730;4.244;2023-10-19T02:20:28;7.63;;;2.33;;
27869;SDS011;15225;50.730;4.244;2023-10-19T02:22:55;8.38;;;1.92;;
27869;SDS011;15225;50.730;4.244;2023-10-19T02:25:22;6.85;;;2.35;;
27869;SDS011;15225;50.730;4.244;2023-10-19T02:28:04;11.23;;;2.17;;
27869;SDS011;15225;50.730;4.244;2023-10-19T02:30:34;15.27;;;2.70;;
27869;SDS011;15225;50.730;4.244;2023-10-19T02:33:00;9.57;;;2.15;;
27869;SDS011;15225;50.730;4.244;2023-10-19T02:35:28;7.65;;;2.13;;
27869;SDS011;15225;50.730;4.244;2023-10-19T02:37:54;10.32;;;2.72;;
27869;SDS011;15225;50.730;4.244;2023-10-19T02:40:20;11.80;;;2.25;;
27869;SDS011;15225;50.730;4.244;2023-10-19T02:42:49;10.25;;;2.53;;
27869;SDS011;15225;50.730;4.244;2023-10-19T02:45:18;14.13;;;2.83;;
27869;SDS011;15225;50.730;4.244;2023-10-19T02:47:45;8.93;;;2.15;;
27869;SDS011;15225;50.730;4.244;2023-10-19T02:50:11;15.63;;;2.65;;
27869;SDS011;15225;50.730;4.244;2023-10-19T02:52:48;8.13;;;2.63;;
27869;SDS011;15225;50.730;4.244;2023-10-19T02:55:14;11.95;;;2.58;;
27869;SDS011;15225;50.730;4.244;2023-10-19T02:57:41;10.57;;;2.33;;
27869;SDS011;15225;50.730;4.244;2023-10-19T03:00:11;13.40;;;2.58;;
27869;SDS011;15225;50.730;4.244;2023-10-19T03:02:39;8.63;;;2.20;;
27869;SDS011;15225;50.730;4.244;2023-10-19T03:05:05;13.38;;;2.50;;
27869;SDS011;15225;50.730;4.244;2023-10-19T03:07:42;13.00;;;2.38;;
27869;SDS011;15225;50.730;4.244;2023-10-19T03:10:09;11.73;;;2.90;;
27869;SDS011;15225;50.730;4.244;2023-10-19T03:13:07;14.20;;;2.67;;
27869;SDS011;15225;50.730;4.244;2023-10-19T03:15:33;9.25;;;2.58;;
27869;SDS011;15225;50.730;4.244;2023-10-19T03:18:00;10.35;;;2.67;;
27869;SDS011;15225;50.730;4.244;2023-10-19T03:20:29;13.50;;;3.08;;
27869;SDS011;15225;50.730;4.244;2023-10-19T03:22:58;14.88;;;2.63;;
27869;SDS011;15225;50.730;4.244;2023-10-19T03:25:26;12.70;;;3.10;;
27869;SDS011;15225;50.730;4.244;2023-10-19T03:28:11;10.30;;;2.38;;
27869;SDS011;15225;50.730;4.244;2023-10-19T03:30:37;11.68;;;2.92;;
27869;SDS011;15225;50.730;4.244;2023-10-19T03:33:06;15.48;;;2.65;;
27869;SDS011;15225;50.730;4.244;2023-10-19T03:35:37;14.82;;;2.58;;
27869;SDS011;15225;50.730;4.244;2023-10-19T03:38:06;16.08;;;3.00;;
27869;SDS011;15225;50.730;4.244;2023-10-19T03:40:42;15.77;;;2.63;;
27869;SDS011;15225;50.730;4.244;2023-10-19T03:43:16;9.88;;;2.72;;
27869;SDS011;15225;50.730;4.244;2023-10-19T03:45:43;22.05;;;3.33;;
27869;SDS011;15225;50.730;4.244;2023-10-19T03:48:17;9.15;;;2.00;;
27869;SDS011;15225;50.730;4.244;2023-10-19T03:50:49;15.88;;;3.08;;
27869;SDS011;15225;50.730;4.244;2023-10-19T03:53:17;11.43;;;2.47;;
27869;SDS011;15225;50.730;4.244;2023-10-19T03:55:43;11.68;;;2.65;;
27869;SDS011;15225;50.730;4.244;2023-10-19T03:58:09;9.18;;;2.47;;
27869;SDS011;15225;50.730;4.244;2023-10-19T04:00:37;17.80;;;2.70;;
27869;SDS011;15225;50.730;4.244;2023-10-19T04:03:03;16.15;;;2.58;;
27869;SDS011;15225;50.730;4.244;2023-10-19T04:05:29;16.77;;;3.20;;
27869;SDS011;15225;50.730;4.244;2023-10-19T04:07:56;14.40;;;2.67;;
27869;SDS011;15225;50.730;4.244;2023-10-19T04:10:24;16.80;;;3.00;;
27869;SDS011;15225;50.730;4.244;2023-10-19T04:13:03;17.00;;;2.72;;
27869;SDS011;15225;50.730;4.244;2023-10-19T04:15:34;9.00;;;2.22;;
27869;SDS011;15225;50.730;4.244;2023-10-19T04:18:01;15.57;;;2.42;;
27869;SDS011;15225;50.730;4.244;2023-10-19T04:20:34;12.43;;;3.03;;
27869;SDS011;15225;50.730;4.244;2023-10-19T04:23:18;11.85;;;2.63;;
27869;SDS011;15225;50.730;4.244;2023-10-19T04:25:45;13.85;;;2.80;;
27869;SDS011;15225;50.730;4.244;2023-10-19T04:28:11;10.00;;;2.40;;
27869;SDS011;15225;50.730;4.244;2023-10-19T04:30:45;12.50;;;2.78;;
27869;SDS011;15225;50.730;4.244;2023-10-19T04:33:11;13.50;;;3.03;;
27869;SDS011;15225;50.730;4.244;2023-10-19T04:35:37;15.65;;;2.75;;
27869;SDS011;15225;50.730;4.244;2023-10-19T04:38:06;16.08;;;2.70;;
27869;SDS011;15225;50.730;4.244;2023-10-19T04:40:32;16.42;;;3.03;;
27869;SDS011;15225;50.730;4.244;2023-10-19T04:42:57;15.02;;;3.35;;
27869;SDS011;15225;50.730;4.244;2023-10-19T04:45:23;14.32;;;2.63;;
27869;SDS011;15225;50.730;4.244;2023-10-19T04:47:52;11.50;;;2.63;;
27869;SDS011;15225;50.730;4.244;2023-10-19T04:50:20;19.30;;;3.03;;
27869;SDS011;15225;50.730;4.244;2023-10-19T04:52:46;14.27;;;3.22;;
27869;SDS011;15225;50.730;4.244;2023-10-19T04:55:12;12.88;;;2.80;;
27869;SDS011;15225;50.730;4.244;2023-10-19T04:57:38;15.60;;;2.92;;
27869;SDS011;15225;50.730;4.244;2023-10-19T05:00:04;16.95;;;3.22;;
27869;SDS011;15225;50.730;4.244;2023-10-19T05:02:31;14.15;;;2.70;;
27869;SDS011;15225;50.730;4.244;2023-10-19T05:04:56;17.85;;;2.65;;
27869;SDS011;15225;50.730;4.244;2023-10-19T05:07:22;16.80;;;3.35;;
27869;SDS011;15225;50.730;4.244;2023-10-19T05:09:48;8.27;;;2.35;;
27869;SDS011;15225;50.730;4.244;2023-10-19T05:12:14;15.57;;;2.83;;
27869;SDS011;15225;50.730;4.244;2023-10-19T05:14:40;18.83;;;3.72;;
27869;SDS011;15225;50.730;4.244;2023-10-19T05:17:07;12.07;;;2.85;;
27869;SDS011;15225;50.730;4.244;2023-10-19T05:19:37;16.75;;;2.97;;
27869;SDS011;15225;50.730;4.244;2023-10-19T05:22:07;20.58;;;3.13;;
27869;SDS011;15225;50.730;4.244;2023-10-19T05:24:34;10.95;;;2.55;;
27869;SDS011;15225;50.730;4.244;2023-10-19T05:27:01;10.77;;;2.83;;
27869;SDS011;15225;50.730;4.244;2023-10-19T05:29:27;13.57;;;3.13;;
27869;SDS011;15225;50.730;4.244;2023-10-19T05:31:56;14.27;;;2.97;;
27869;SDS011;15225;50.730;4.244;2023-10-19T05:34:26;14.05;;;3.00;;
27869;SDS011;15225;50.730;4.244;2023-10-19T05:36:52;10.80;;;2.63;;
27869;SDS011;15225;50.730;4.244;2023-10-19T05:39:19;16.67;;;2.83;;
27869;SDS011;15225;50.730;4.244;2023-10-19T05:41:45;11.90;;;2.58;;
27869;SDS011;15225;50.730;4.244;2023-10-19T05:44:12;21.00;;;3.20;;
27869;SDS011;15225;50.730;4.244;2023-10-19T05:46:37;14.32;;;2.88;;
27869;SDS011;15225;50.730;4.244;2023-10-19T05:49:05;20.33;;;3.72;;
27869;SDS011;15225;50.730;4.244;2023-10-19T05:51:31;15.95;;;2.85;;
27869;SDS011;15225;50.730;4.244;2023-10-19T05:53:57;12.30;;;2.60;;
27869;SDS011;15225;50.730;4.244;2023-10-19T05:56:29;15.27;;;2.60;;
27869;SDS011;15225;50.730;4.244;2023-10-19T05:58:56;21.65;;;4.22;;
27869;SDS011;15225;50.730;4.244;2023-10-19T06:01:23;15.10;;;2.40;;
27869;SDS011;15225;50.730;4.244;2023-10-19T06:03:49;13.35;;;3.00;;
27869;SDS011;15225;50.730;4.244;2023-10-19T06:06:15;16.52;;;2.92;;
27869;SDS011;15225;50.730;4.244;2023-10-19T06:08:41;11.55;;;3.08;;
27869;SDS011;15225;50.730;4.244;2023-10-19T06:11:07;17.73;;;3.33;;
27869;SDS011;15225;50.730;4.244;2023-10-19T06:13:33;16.67;;;3.05;;
27869;SDS011;15225;50.730;4.244;2023-10-19T06:15:59;13.80;;;3.08;;
27869;SDS011;15225;50.730;4.244;2023-10-19T06:18:24;13.23;;;3.33;;
27869;SDS011;15225;50.730;4.244;2023-10-19T06:20:50;19.17;;;3.42;;
27869;SDS011;15225;50.730;4.244;2023-10-19T06:23:17;22.60;;;3.83;;
27869;SDS011;15225;50.730;4.244;2023-10-19T06:25:43;19.15;;;3.00;;
27869;SDS011;15225;50.730;4.244;2023-10-19T06:28:09;13.98;;;2.67;;
27869;SDS011;15225;50.730;4.244;2023-10-19T06:30:38;19.13;;;3.13;;
27869;SDS011;15225;50.730;4.244;2023-10-19T06:33:07;16.33;;;2.88;;
27869;SDS011;15225;50.730;4.244;2023-10-19T06:35:33;26.42;;;4.18;;
27869;SDS011;15225;50.730;4.244;2023-10-19T06:38:02;14.25;;;2.95;;
27869;SDS011;15225;50.730;4.244;2023-10-19T06:40:34;18.63;;;3.45;;
27869;SDS011;15225;50.730;4.244;2023-10-19T06:43:02;14.25;;;2.92;;
27869;SDS011;15225;50.730;4.244;2023-10-19T06:45:30;17.83;;;3.58;;
27869;SDS011;15225;50.730;4.244;2023-10-19T06:47:56;16.13;;;3.55;;
27869;SDS011;15225;50.730;4.244;2023-10-19T06:50:23;26.63;;;3.55;;
27869;SDS011;15225;50.730;4.244;2023-10-19T06:52:49;15.15;;;2.97;;
27869;SDS011;15225;50.730;4.244;2023-10-19T06:55:16;15.23;;;2.88;;
27869;SDS011;15225;50.730;4.244;2023-10-19T06:57:46;17.05;;;3.42;;
27869;SDS011;15225;50.730;4.244;2023-10-19T07:00:14;13.55;;;2.97;;
27869;SDS011;15225;50.730;4.244;2023-10-19T07:02:42;17.33;;;2.95;;
27869;SDS011;15225;50.730;4.244;2023-10-19T07:05:09;18.63;;;3.30;;
27869;SDS011;15225;50.730;4.244;2023-10-19T07:10:10;12.15;;;2.50;;
27869;SDS011;15225;50.730;4.244;2023-10-19T07:12:41;16.10;;;3.80;;
27869;SDS011;15225;50.730;4.244;2023-10-19T07:15:09;15.27;;;3.47;;
27869;SDS011;15225;50.730;4.244;2023-10-19T07:17:39;22.40;;;2.83;;
27869;SDS011;15225;50.730;4.244;2023-10-19T07:20:06;17.30;;;3.60;;
27869;SDS011;15225;50.730;4.244;2023-10-19T07:22:35;23.75;;;3.67;;
27869;SDS011;15225;50.730;4.244;2023-10-19T07:25:07;13.82;;;2.70;;
27869;SDS011;15225;50.730;4.244;2023-10-19T07:27:34;22.05;;;3.72;;
27869;SDS011;15225;50.730;4.244;2023-10-19T07:30:00;12.18;;;2.75;;
27869;SDS011;15225;50.730;4.244;2023-10-19T07:32:30;17.83;;;3.47;;
27869;SDS011;15225;50.730;4.244;2023-10-19T07:34:56;16.50;;;3.17;;
27869;SDS011;15225;50.730;4.244;2023-10-19T07:37:22;14.50;;;2.50;;
27869;SDS011;15225;50.730;4.244;2023-10-19T07:39:48;16.13;;;2.60;;
27869;SDS011;15225;50.730;4.244;2023-10-19T07:42:14;16.77;;;3.00;;
27869;SDS011;15225;50.730;4.244;2023-10-19T07:44:40;15.65;;;3.85;;
27869;SDS011;15225;50.730;4.244;2023-10-19T07:47:06;19.38;;;3.63;;
27869;SDS011;15225;50.730;4.244;2023-10-19T07:49:34;15.07;;;3.42;;
27869;SDS011;15225;50.730;4.244;2023-10-19T07:52:03;20.90;;;3.10;;
27869;SDS011;15225;50.730;4.244;2023-10-19T07:54:33;17.30;;;3.17;;
27869;SDS011;15225;50.730;4.244;2023-10-19T07:57:00;12.82;;;2.92;;
27869;SDS011;15225;50.730;4.244;2023-10-19T07:59:30;14.80;;;3.60;;
27869;SDS011;15225;50.730;4.244;2023-10-19T08:02:02;27.92;;;4.63;;
27869;SDS011;15225;50.730;4.244;2023-10-19T08:04:29;22.57;;;4.40;;
27869;SDS011;15225;50.730;4.244;2023-10-19T08:06:59;28.15;;;3.90;;
27869;SDS011;15225;50.730;4.244;2023-10-19T08:09:25;26.08;;;4.43;;
27869;SDS011;15225;50.730;4.244;2023-10-19T08:11:57;25.52;;;4.43;;
27869;SDS011;15225;50.730;4.244;2023-10-19T08:14:27;29.45;;;5.55;;
27869;SDS011;15225;50.730;4.244;2023-10-19T08:16:53;21.67;;;5.43;;
27869;SDS011;15225;50.730;4.244;2023-10-19T08:19:21;20.05;;;5.13;;
27869;SDS011;15225;50.730;4.244;2023-10-19T08:21:47;19.65;;;4.53;;
27869;SDS011;15225;50.730;4.244;2023-10-19T08:24:13;21.38;;;4.28;;
27869;SDS011;15225;50.730;4.244;2023-10-19T08:26:43;15.27;;;4.03;;
27869;SDS011;15225;50.730;4.244;2023-10-19T08:29:12;23.42;;;4.00;;
27869;SDS011;15225;50.730;4.244;2023-10-19T08:31:41;19.98;;;4.13;;
27869;SDS011;15225;50.730;4.244;2023-10-19T08:34:11;20.52;;;3.58;;
27869;SDS011;15225;50.730;4.244;2023-10-19T08:36:37;13.32;;;3.45;;
27869;SDS011;15225;50.730;4.244;2023-10-19T08:39:07;18.35;;;3.70;;
27869;SDS011;15225;50.730;4.244;2023-10-19T08:41:34;19.65;;;4.43;;
27869;SDS011;15225;50.730;4.244;2023-10-19T08:44:05;21.55;;;4.18;;
27869;SDS011;15225;50.730;4.244;2023-10-19T08:46:43;19.35;;;3.88;;
27869;SDS011;15225;50.730;4.244;2023-10-19T08:49:18;24.33;;;3.72;;
27869;SDS011;15225;50.730;4.244;2023-10-19T08:51:45;17.58;;;3.20;;
27869;SDS011;15225;50.730;4.244;2023-10-19T08:54:14;24.33;;;3.95;;
27869;SDS011;15225;50.730;4.244;2023-10-19T08:56:41;18.35;;;3.38;;
27869;SDS011;15225;50.730;4.244;2023-10-19T08:59:07;17.10;;;4.03;;
27869;SDS011;15225;50.730;4.244;2023-10-19T09:01:36;19.90;;;3.08;;
27869;SDS011;15225;50.730;4.244;2023-10-19T09:04:02;19.63;;;3.55;;
27869;SDS011;15225;50.730;4.244;2023-10-19T09:06:34;18.00;;;3.33;;
27869;SDS011;15225;50.730;4.244;2023-10-19T09:09:09;16.73;;;4.28;;
27869;SDS011;15225;50.730;4.244;2023-10-19T09:11:44;22.73;;;4.50;;
27869;SDS011;15225;50.730;4.244;2023-10-19T09:14:14;17.63;;;2.85;;
27869;SDS011;15225;50.730;4.244;2023-10-19T09:16:55;23.10;;;4.22;;
27869;SDS011;15225;50.730;4.244;2023-10-19T09:19:38;19.98;;;3.40;;
27869;SDS011;15225;50.730;4.244;2023-10-19T09:22:04;23.92;;;3.63;;
27869;SDS011;15225;50.730;4.244;2023-10-19T09:24:35;17.88;;;2.95;;
27869;SDS011;15225;50.730;4.244;2023-10-19T09:27:02;14.00;;;3.25;;
27869;SDS011;15225;50.730;4.244;2023-10-19T09:29:29;16.90;;;3.45;;
27869;SDS011;15225;50.730;4.244;2023-10-19T09:31:57;18.70;;;3.53;;
27869;SDS011;15225;50.730;4.244;2023-10-19T09:34:27;15.65;;;4.50;;
27869;SDS011;15225;50.730;4.244;2023-10-19T09:39:28;19.27;;;3.50;;
27869;SDS011;15225;50.730;4.244;2023-10-19T09:42:07;14.55;;;2.80;;
27869;SDS011;15225;50.730;4.244;2023-10-19T09:44:41;20.70;;;3.58;;
27869;SDS011;15225;50.730;4.244;2023-10-19T09:47:14;16.50;;;3.90;;
27869;SDS011;15225;50.730;4.244;2023-10-19T09:49:44;25.05;;;3.75;;
27869;SDS011;15225;50.730;4.244;2023-10-19T09:52:10;12.50;;;2.83;;
27869;SDS011;15225;50.730;4.244;2023-10-19T09:54:57;17.63;;;3.92;;
27869;SDS011;15225;50.730;4.244;2023-10-19T09:57:36;25.30;;;3.60;;
27869;SDS011;15225;50.730;4.244;2023-10-19T10:00:07;13.55;;;3.35;;
27869;SDS011;15225;50.730;4.244;2023-10-19T10:02:43;19.02;;;3.70;;
27869;SDS011;15225;50.730;4.244;2023-10-19T10:10:49;10.48;;;2.85;;
27869;SDS011;15225;50.730;4.244;2023-10-19T10:15:57;20.33;;;3.60;;
27869;SDS011;15225;50.730;4.244;2023-10-19T10:18:30;15.02;;;2.60;;
27869;SDS011;15225;50.730;4.244;2023-10-19T10:21:18;14.43;;;2.92;;
27869;SDS011;15225;50.730;4.244;2023-10-19T10:26:18;19.15;;;3.40;;
27869;SDS011;15225;50.730;4.244;2023-10-19T10:31:46;12.13;;;3.05;;
27869;SDS011;15225;50.730;4.244;2023-10-19T10:37:08;14.95;;;3.40;;
27869;SDS011;15225;50.730;4.244;2023-10-19T10:42:06;14.10;;;2.70;;
27869;SDS011;15225;50.730;4.244;2023-10-19T10:44:45;12.50;;;2.80;;
27869;SDS011;15225;50.730;4.244;2023-10-19T10:47:22;17.58;;;3.70;;
27869;SDS011;15225;50.730;4.244;2023-10-19T10:49:59;12.68;;;2.83;;
27869;SDS011;15225;50.730;4.244;2023-10-19T10:52:32;13.10;;;2.90;;
27869;SDS011;15225;50.730;4.244;2023-10-19T10:55:09;13.65;;;2.85;;
27869;SDS011;15225;50.730;4.244;2023-10-19T10:57:37;15.05;;;3.53;;
27869;SDS011;15225;50.730;4.244;2023-10-19T11:00:04;10.93;;;3.30;;
27869;SDS011;15225;50.730;4.244;2023-10-19T11:02:41;11.50;;;2.88;;
27869;SDS011;15225;50.730;4.244;2023-10-19T11:05:15;15.82;;;2.90;;
27869;SDS011;15225;50.730;4.244;2023-10-19T11:08:02;8.70;;;2.60;;
27869;SDS011;15225;50.730;4.244;2023-10-19T11:10:32;11.48;;;2.33;;
27869;SDS011;15225;50.730;4.244;2023-10-19T11:13:03;16.90;;;3.28;;
27869;SDS011;15225;50.730;4.244;2023-10-19T11:15:31;11.43;;;2.78;;
27869;SDS011;15225;50.730;4.244;2023-10-19T11:18:02;8.38;;;2.33;;
27869;SDS011;15225;50.730;4.244;2023-10-19T11:20:28;9.40;;;2.40;;
27869;SDS011;15225;50.730;4.244;2023-10-19T11:22:54;10.65;;;2.40;;
27869;SDS011;15225;50.730;4.244;2023-10-19T11:25:24;14.55;;;2.58;;
27869;SDS011;15225;50.730;4.244;2023-10-19T11:27:58;11.23;;;2.20;;
27869;SDS011;15225;50.730;4.244;2023-10-19T11:32:52;10.02;;;2.30;;
27869;SDS011;15225;50.730;4.244;2023-10-19T11:35:21;8.67;;;2.00;;
27869;SDS011;15225;50.730;4.244;2023-10-19T11:37:53;10.23;;;1.48;;
27869;SDS011;15225;50.730;4.244;2023-10-19T11:40:23;6.28;;;1.63;;
27869;SDS011;15225;50.730;4.244;2023-10-19T11:45:16;4.65;;;1.40;;
27869;SDS011;15225;50.730;4.244;2023-10-19T11:47:43;5.13;;;1.50;;
27869;SDS011;15225;50.730;4.244;2023-10-19T11:50:10;4.72;;;1.60;;
27869;SDS011;15225;50.730;4.244;2023-10-19T11:52:43;5.43;;;1.33;;
27869;SDS011;15225;50.730;4.244;2023-10-19T11:55:10;6.15;;;1.63;;
27869;SDS011;15225;50.730;4.244;2023-10-19T11:57:38;5.47;;;1.42;;
27869;SDS011;15225;50.730;4.244;2023-10-19T12:00:05;14.70;;;2.22;;
27869;SDS011;15225;50.730;4.244;2023-10-19T12:02:35;6.30;;;1.50;;
27869;SDS011;15225;50.730;4.244;2023-10-19T12:05:06;1.85;;;1.13;;
27869;SDS011;15225;50.730;4.244;2023-10-19T12:07:36;7.55;;;1.80;;
27869;SDS011;15225;50.730;4.244;2023-10-19T12:10:03;5.03;;;1.50;;
27869;SDS011;15225;50.730;4.244;2023-10-19T12:12:36;4.35;;;1.40;;
27869;SDS011;15225;50.730;4.244;2023-10-19T12:15:03;9.18;;;1.38;;
27869;SDS011;15225;50.730;4.244;2023-10-19T12:17:30;4.53;;;1.65;;
27869;SDS011;15225;50.730;4.244;2023-10-19T12:19:56;4.35;;;1.15;;
27869;SDS011;15225;50.730;4.244;2023-10-19T12:22:22;4.50;;;1.30;;
27869;SDS011;15225;50.730;4.244;2023-10-19T12:24:49;6.95;;;1.50;;
27869;SDS011;15225;50.730;4.244;2023-10-19T12:27:16;6.18;;;1.60;;
27869;SDS011;15225;50.730;4.244;2023-10-19T12:29:43;9.10;;;1.50;;
27869;SDS011;15225;50.730;4.244;2023-10-19T12:32:09;2.20;;;1.33;;
27869;SDS011;15225;50.730;4.244;2023-10-19T12:34:37;6.30;;;1.70;;
27869;SDS011;15225;50.730;4.244;2023-10-19T12:37:02;4.65;;;1.20;;
27869;SDS011;15225;50.730;4.244;2023-10-19T12:39:28;2.30;;;0.82;;
27869;SDS011;15225;50.730;4.244;2023-10-19T12:42:09;3.30;;;1.00;;
27869;SDS011;15225;50.730;4.244;2023-10-19T12:44:36;5.35;;;1.42;;
27869;SDS011;15225;50.730;4.244;2023-10-19T12:47:06;6.03;;;1.15;;
27869;SDS011;15225;50.730;4.244;2023-10-19T12:49:41;5.28;;;1.25;;
27869;SDS011;15225;50.730;4.244;2023-10-19T12:52:07;4.05;;;1.23;;
27869;SDS011;15225;50.730;4.244;2023-10-19T12:54:37;2.90;;;0.98;;
27869;SDS011;15225;50.730;4.244;2023-10-19T12:57:03;4.03;;;1.40;;
27869;SDS011;15225;50.730;4.244;2023-10-19T12:59:33;2.40;;;1.05;;
27869;SDS011;15225;50.730;4.244;2023-10-19T13:01:59;6.30;;;1.15;;
27869;SDS011;15225;50.730;4.244;2023-10-19T13:04:28;4.35;;;1.30;;
27869;SDS011;15225;50.730;4.244;2023-10-19T13:06:56;4.18;;;1.25;;
27869;SDS011;15225;50.730;4.244;2023-10-19T13:09:23;4.57;;;1.05;;
27869;SDS011;15225;50.730;4.244;2023-10-19T13:11:56;4.75;;;0.90;;
27869;SDS011;15225;50.730;4.244;2023-10-19T13:14:22;4.60;;;0.90;;
27869;SDS011;15225;50.730;4.244;2023-10-19T13:16:48;2.45;;;1.00;;
27869;SDS011;15225;50.730;4.244;2023-10-19T13:19:18;17.27;;;1.67;;
27869;SDS011;15225;50.730;4.244;2023-10-19T13:21:49;6.40;;;1.30;;
27869;SDS011;15225;50.730;4.244;2023-10-19T13:24:15;2.00;;;0.90;;
27869;SDS011;15225;50.730;4.244;2023-10-19T13:26:42;4.93;;;1.40;;
27869;SDS011;15225;50.730;4.244;2023-10-19T13:29:12;5.63;;;1.42;;
27869;SDS011;15225;50.730;4.244;2023-10-19T13:31:38;8.77;;;1.50;;
27869;SDS011;15225;50.730;4.244;2023-10-19T13:34:04;3.97;;;1.30;;
27869;SDS011;15225;50.730;4.244;2023-10-19T13:36:35;3.78;;;1.38;;
27869;SDS011;15225;50.730;4.244;2023-10-19T13:39:01;8.80;;;1.67;;
27869;SDS011;15225;50.730;4.244;2023-10-19T13:41:28;2.78;;;1.48;;
27869;SDS011;15225;50.730;4.244;2023-10-19T13:43:54;3.72;;;1.17;;
27869;SDS011;15225;50.730;4.244;2023-10-19T13:46:20;4.72;;;1.17;;
27869;SDS011;15225;50.730;4.244;2023-10-19T13:48:48;4.20;;;1.55;;
27869;SDS011;15225;50.730;4.244;2023-10-19T13:51:17;1.70;;;1.00;;
27869;SDS011;15225;50.730;4.244;2023-10-19T13:53:44;1.85;;;1.15;;
27869;SDS011;15225;50.730;4.244;2023-10-19T13:56:10;6.43;;;1.65;;
27869;SDS011;15225;50.730;4.244;2023-10-19T13:58:36;2.95;;;1.40;;
27869;SDS011;15225;50.730;4.244;2023-10-19T14:01:06;4.22;;;1.00;;
27869;SDS011;15225;50.730;4.244;2023-10-19T14:03:33;3.22;;;1.00;;
27869;SDS011;15225;50.730;4.244;2023-10-19T14:05:59;4.90;;;1.20;;
27869;SDS011;15225;50.730;4.244;2023-10-19T14:08:25;5.07;;;1.50;;
27869;SDS011;15225;50.730;4.244;2023-10-19T14:10:51;0.85;;;0.65;;
27869;SDS011;15225;50.730;4.244;2023-10-19T14:13:17;5.78;;;1.65;;
27869;SDS011;15225;50.730;4.244;2023-10-19T14:15:42;1.50;;;1.05;;
27869;SDS011;15225;50.730;4.244;2023-10-19T14:18:08;6.53;;;1.20;;
27869;SDS011;15225;50.730;4.244;2023-10-19T14:20:35;4.72;;;1.23;;
27869;SDS011;15225;50.730;4.244;2023-10-19T14:23:04;3.30;;;0.98;;
27869;SDS011;15225;50.730;4.244;2023-10-19T14:25:37;4.43;;;1.45;;
27869;SDS011;15225;50.730;4.244;2023-10-19T14:28:04;2.55;;;1.15;;
27869;SDS011;15225;50.730;4.244;2023-10-19T14:30:31;7.78;;;1.08;;
27869;SDS011;15225;50.730;4.244;2023-10-19T14:32:57;2.38;;;1.00;;
27869;SDS011;15225;50.730;4.244;2023-10-19T14:35:24;16.60;;;2.30;;
27869;SDS011;15225;50.730;4.244;2023-10-19T14:37:51;5.32;;;1.20;;
27869;SDS011;15225;50.730;4.244;2023-10-19T14:45:21;3.55;;;1.40;;
27869;SDS011;15225;50.730;4.244;2023-10-19T14:47:51;5.93;;;1.35;;
27869;SDS011;15225;50.730;4.244;2023-10-19T14:50:17;5.88;;;1.20;;
27869;SDS011;15225;50.730;4.244;2023-10-19T14:52:45;4.38;;;1.10;;
27869;SDS011;15225;50.730;4.244;2023-10-19T14:55:12;1.95;;;1.10;;
27869;SDS011;15225;50.730;4.244;2023-10-19T14:57:44;4.40;;;1.17;;
27869;SDS011;15225;50.730;4.244;2023-10-19T15:00:13;3.65;;;1.02;;
27869;SDS011;15225;50.730;4.244;2023-10-19T15:02:44;4.90;;;1.65;;
27869;SDS011;15225;50.730;4.244;2023-10-19T15:05:10;2.70;;;1.42;;
27869;SDS011;15225;50.730;4.244;2023-10-19T15:07:45;5.90;;;1.50;;
27869;SDS011;15225;50.730;4.244;2023-10-19T15:10:16;4.40;;;1.45;;
27869;SDS011;15225;50.730;4.244;2023-10-19T15:12:43;5.93;;;1.65;;
27869;SDS011;15225;50.730;4.244;2023-10-19T15:15:09;2.50;;;1.10;;
27869;SDS011;15225;50.730;4.244;2023-10-19T15:17:42;2.72;;;1.55;;
27869;SDS011;15225;50.730;4.244;2023-10-19T15:20:09;4.03;;;1.40;;
27869;SDS011;15225;50.730;4.244;2023-10-19T15:22:36;11.60;;;1.80;;
27869;SDS011;15225;50.730;4.244;2023-10-19T15:25:03;4.20;;;1.35;;
27869;SDS011;15225;50.730;4.244;2023-10-19T15:27:32;5.63;;;1.40;;
27869;SDS011;15225;50.730;4.244;2023-10-19T15:29:59;2.47;;;1.30;;
27869;SDS011;15225;50.730;4.244;2023-10-19T15:32:25;3.85;;;1.55;;
27869;SDS011;15225;50.730;4.244;2023-10-19T15:34:51;5.65;;;1.50;;